sensor_id;sensor_type;location;lat;lon;timestamp;temperature;humidity
19232;DHT22;9750;48.730;10.294;2024-03-07T00:00:41;5.20;99.90
19232;DHT22;9750;48.730;10.294;2024-03-07T00:03:09;5.20;99.90
19232;DHT22;9750;48.730;10.294;2024-03-07T00:05:38;5.20;99.90
19232;DHT22;9750;48.730;10.294;2024-03-07T00:08:05;5.20;99.90
19232;DHT22;9750;48.730;10.294;2024-03-07T00:10:33;5.10;99.90
19232;DHT22;9750;48.730;10.294;2024-03-07T00:13:01;5.10;99.90
19232;DHT22;9750;48.730;10.294;2024-03-07T00:15:29;5.00;99.90
19232;DHT22;9750;48.730;10.294;2024-03-07T00:17:56;5.00;99.90
19232;DHT22;9750;48.730;10.294;2024-03-07T00:20:24;5.00;99.90
19232;DHT22;9750;48.730;10.294;2024-03-07T00:22:53;5.00;99.90
19232;DHT22;9750;48.730;10.294;2024-03-07T00:25:20;4.90;99.90
19232;DHT22;9750;48.730;10.294;2024-03-07T00:27:48;4.90;99.90
19232;DHT22;9750;48.730;10.294;2024-03-07T00:30:18;4.90;99.90
19232;DHT22;9750;48.730;10.294;2024-03-07T00:32:46;4.80;99.90
19232;DHT22;9750;48.730;10.294;2024-03-07T00:35:13;4.80;99.90
19232;DHT22;9750;48.730;10.294;2024-03-07T00:37:41;4.70;99.90
19232;DHT22;9750;48.730;10.294;2024-03-07T00:40:10;4.70;99.90
19232;DHT22;9750;48.730;10.294;2024-03-07T00:42:38;4.70;99.90
19232;DHT22;9750;48.730;10.294;2024-03-07T00:45:05;4.70;99.90
19232;DHT22;9750;48.730;10.294;2024-03-07T00:47:33;4.70;99.90
19232;DHT22;9750;48.730;10.294;2024-03-07T00:50:00;4.60;99.90
19232;DHT22;9750;48.730;10.294;2024-03-07T00:52:27;4.60;99.90
19232;DHT22;9750;48.730;10.294;2024-03-07T00:58:18;4.50;99.90
19232;DHT22;9750;48.730;10.294;2024-03-07T01:00:45;4.50;99.90
19232;DHT22;9750;48.730;10.294;2024-03-07T01:03:13;4.40;99.90
19232;DHT22;9750;48.730;10.294;2024-03-07T01:08:46;4.30;99.90
19232;DHT22;9750;48.730;10.294;2024-03-07T01:11:14;4.30;99.90
19232;DHT22;9750;48.730;10.294;2024-03-07T01:13:42;4.30;99.90
19232;DHT22;9750;48.730;10.294;2024-03-07T01:16:10;4.20;99.90
19232;DHT22;9750;48.730;10.294;2024-03-07T01:18:37;4.20;99.90
19232;DHT22;9750;48.730;10.294;2024-03-07T01:21:05;4.20;99.90
19232;DHT22;9750;48.730;10.294;2024-03-07T01:23:34;4.20;99.90
19232;DHT22;9750;48.730;10.294;2024-03-07T01:26:01;4.20;99.90
19232;DHT22;9750;48.730;10.294;2024-03-07T01:28:29;4.10;99.90
19232;DHT22;9750;48.730;10.294;2024-03-07T01:30:58;4.10;99.90
19232;DHT22;9750;48.730;10.294;2024-03-07T01:33:25;4.00;99.90
19232;DHT22;9750;48.730;10.294;2024-03-07T01:35:53;4.00;99.90
19232;DHT22;9750;48.730;10.294;2024-03-07T01:38:20;4.00;99.90
19232;DHT22;9750;48.730;10.294;2024-03-07T01:40:48;3.90;99.90
19232;DHT22;9750;48.730;10.294;2024-03-07T01:43:15;3.90;99.90
19232;DHT22;9750;48.730;10.294;2024-03-07T01:45:43;3.90;99.90
19232;DHT22;9750;48.730;10.294;2024-03-07T01:48:17;3.90;99.90
19232;DHT22;9750;48.730;10.294;2024-03-07T01:50:48;3.80;99.90
19232;DHT22;9750;48.730;10.294;2024-03-07T01:53:16;3.80;99.90
19232;DHT22;9750;48.730;10.294;2024-03-07T01:55:43;3.80;99.90
19232;DHT22;9750;48.730;10.294;2024-03-07T01:58:14;3.80;99.90
19232;DHT22;9750;48.730;10.294;2024-03-07T02:00:43;3.80;99.90
19232;DHT22;9750;48.730;10.294;2024-03-07T02:03:12;3.80;99.90
19232;DHT22;9750;48.730;10.294;2024-03-07T02:05:40;3.80;99.90
19232;DHT22;9750;48.730;10.294;2024-03-07T02:08:07;3.80;99.90
19232;DHT22;9750;48.730;10.294;2024-03-07T02:10:35;3.70;99.90
19232;DHT22;9750;48.730;10.294;2024-03-07T02:13:02;3.70;99.90
19232;DHT22;9750;48.730;10.294;2024-03-07T02:15:30;3.70;99.90
19232;DHT22;9750;48.730;10.294;2024-03-07T02:17:58;3.70;99.90
19232;DHT22;9750;48.730;10.294;2024-03-07T02:20:27;3.60;99.90
19232;DHT22;9750;48.730;10.294;2024-03-07T02:22:56;3.60;99.90
19232;DHT22;9750;48.730;10.294;2024-03-07T02:25:23;3.50;99.90
19232;DHT22;9750;48.730;10.294;2024-03-07T02:27:50;3.50;99.90
19232;DHT22;9750;48.730;10.294;2024-03-07T02:30:18;3.50;99.90
19232;DHT22;9750;48.730;10.294;2024-03-07T02:32:46;3.50;99.90
19232;DHT22;9750;48.730;10.294;2024-03-07T02:35:18;3.50;99.90
19232;DHT22;9750;48.730;10.294;2024-03-07T02:37:45;3.50;99.90
19232;DHT22;9750;48.730;10.294;2024-03-07T02:40:15;3.50;99.90
19232;DHT22;9750;48.730;10.294;2024-03-07T02:42:43;3.50;99.90
19232;DHT22;9750;48.730;10.294;2024-03-07T02:45:10;3.50;99.90
19232;DHT22;9750;48.730;10.294;2024-03-07T02:47:40;3.40;99.90
19232;DHT22;9750;48.730;10.294;2024-03-07T02:50:10;3.30;99.90
19232;DHT22;9750;48.730;10.294;2024-03-07T02:52:38;3.30;99.90
19232;DHT22;9750;48.730;10.294;2024-03-07T02:55:06;3.30;99.90
19232;DHT22;9750;48.730;10.294;2024-03-07T02:57:37;3.20;99.90
19232;DHT22;9750;48.730;10.294;2024-03-07T03:00:06;3.20;99.90
19232;DHT22;9750;48.730;10.294;2024-03-07T03:02:45;3.20;99.90
19232;DHT22;9750;48.730;10.294;2024-03-07T03:05:13;3.10;99.90
19232;DHT22;9750;48.730;10.294;2024-03-07T03:07:41;3.10;99.90
19232;DHT22;9750;48.730;10.294;2024-03-07T03:10:08;3.10;99.90
19232;DHT22;9750;48.730;10.294;2024-03-07T03:12:38;3.10;99.90
19232;DHT22;9750;48.730;10.294;2024-03-07T03:15:07;3.10;99.90
19232;DHT22;9750;48.730;10.294;2024-03-07T03:17:37;3.10;99.90
19232;DHT22;9750;48.730;10.294;2024-03-07T03:20:05;3.10;99.90
19232;DHT22;9750;48.730;10.294;2024-03-07T03:22:41;3.10;99.90
19232;DHT22;9750;48.730;10.294;2024-03-07T03:25:09;3.10;99.90
19232;DHT22;9750;48.730;10.294;2024-03-07T03:27:39;3.00;99.90
19232;DHT22;9750;48.730;10.294;2024-03-07T03:30:07;3.00;99.90
19232;DHT22;9750;48.730;10.294;2024-03-07T03:32:39;3.00;99.90
19232;DHT22;9750;48.730;10.294;2024-03-07T03:35:22;3.00;99.90
19232;DHT22;9750;48.730;10.294;2024-03-07T03:37:49;3.00;99.90
19232;DHT22;9750;48.730;10.294;2024-03-07T03:40:16;3.00;99.90
19232;DHT22;9750;48.730;10.294;2024-03-07T03:42:45;2.90;99.90
19232;DHT22;9750;48.730;10.294;2024-03-07T03:45:13;2.90;99.90
19232;DHT22;9750;48.730;10.294;2024-03-07T03:47:42;3.00;99.90
19232;DHT22;9750;48.730;10.294;2024-03-07T03:50:10;2.90;99.90
19232;DHT22;9750;48.730;10.294;2024-03-07T03:52:39;2.90;99.90
19232;DHT22;9750;48.730;10.294;2024-03-07T03:55:07;2.90;99.90
19232;DHT22;9750;48.730;10.294;2024-03-07T03:57:36;2.90;99.90
19232;DHT22;9750;48.730;10.294;2024-03-07T04:00:07;2.90;99.90
19232;DHT22;9750;48.730;10.294;2024-03-07T04:02:39;3.00;99.90
19232;DHT22;9750;48.730;10.294;2024-03-07T04:05:07;3.00;99.90
19232;DHT22;9750;48.730;10.294;2024-03-07T04:07:36;3.00;99.90
19232;DHT22;9750;48.730;10.294;2024-03-07T04:10:04;3.00;99.90
19232;DHT22;9750;48.730;10.294;2024-03-07T04:12:33;3.00;99.90
19232;DHT22;9750;48.730;10.294;2024-03-07T04:15:04;3.00;99.90
19232;DHT22;9750;48.730;10.294;2024-03-07T04:17:34;3.00;99.90
19232;DHT22;9750;48.730;10.294;2024-03-07T04:20:02;3.10;99.90
19232;DHT22;9750;48.730;10.294;2024-03-07T04:22:31;3.10;99.90
19232;DHT22;9750;48.730;10.294;2024-03-07T04:24:58;3.10;99.90
19232;DHT22;9750;48.730;10.294;2024-03-07T04:27:27;3.20;99.90
19232;DHT22;9750;48.730;10.294;2024-03-07T04:29:54;3.20;99.90
19232;DHT22;9750;48.730;10.294;2024-03-07T04:32:21;3.20;99.90
19232;DHT22;9750;48.730;10.294;2024-03-07T04:34:50;3.30;99.90
19232;DHT22;9750;48.730;10.294;2024-03-07T04:37:17;3.30;99.90
19232;DHT22;9750;48.730;10.294;2024-03-07T04:39:45;3.30;99.90
19232;DHT22;9750;48.730;10.294;2024-03-07T04:42:12;3.30;99.90
19232;DHT22;9750;48.730;10.294;2024-03-07T04:44:39;3.30;99.90
19232;DHT22;9750;48.730;10.294;2024-03-07T04:47:07;3.20;99.90
19232;DHT22;9750;48.730;10.294;2024-03-07T04:49:34;3.30;99.90
19232;DHT22;9750;48.730;10.294;2024-03-07T04:52:04;3.20;99.90
19232;DHT22;9750;48.730;10.294;2024-03-07T04:54:32;3.20;99.90
19232;DHT22;9750;48.730;10.294;2024-03-07T04:57:01;3.30;99.90
19232;DHT22;9750;48.730;10.294;2024-03-07T04:59:29;3.30;99.90
19232;DHT22;9750;48.730;10.294;2024-03-07T05:01:56;3.30;99.90
19232;DHT22;9750;48.730;10.294;2024-03-07T05:04:24;3.30;99.90
19232;DHT22;9750;48.730;10.294;2024-03-07T05:06:55;3.30;99.90
19232;DHT22;9750;48.730;10.294;2024-03-07T05:09:24;3.30;99.90
19232;DHT22;9750;48.730;10.294;2024-03-07T05:11:54;3.30;99.90
19232;DHT22;9750;48.730;10.294;2024-03-07T05:14:22;3.30;99.90
19232;DHT22;9750;48.730;10.294;2024-03-07T05:16:50;3.30;99.90
19232;DHT22;9750;48.730;10.294;2024-03-07T05:19:31;3.30;99.90
19232;DHT22;9750;48.730;10.294;2024-03-07T05:21:59;3.30;99.90
19232;DHT22;9750;48.730;10.294;2024-03-07T05:24:28;3.40;99.90
19232;DHT22;9750;48.730;10.294;2024-03-07T05:26:55;3.40;99.90
19232;DHT22;9750;48.730;10.294;2024-03-07T05:29:23;3.40;99.90
19232;DHT22;9750;48.730;10.294;2024-03-07T05:31:50;3.40;99.90
19232;DHT22;9750;48.730;10.294;2024-03-07T05:34:18;3.40;99.90
19232;DHT22;9750;48.730;10.294;2024-03-07T05:36:46;3.40;99.90
19232;DHT22;9750;48.730;10.294;2024-03-07T05:39:14;3.40;99.90
19232;DHT22;9750;48.730;10.294;2024-03-07T05:41:44;3.40;99.90
19232;DHT22;9750;48.730;10.294;2024-03-07T05:44:12;3.50;99.90
19232;DHT22;9750;48.730;10.294;2024-03-07T05:46:39;3.40;99.90
19232;DHT22;9750;48.730;10.294;2024-03-07T05:49:12;3.40;99.90
19232;DHT22;9750;48.730;10.294;2024-03-07T05:51:39;3.40;99.90
19232;DHT22;9750;48.730;10.294;2024-03-07T05:54:10;3.40;99.90
19232;DHT22;9750;48.730;10.294;2024-03-07T05:56:39;3.40;99.90
19232;DHT22;9750;48.730;10.294;2024-03-07T05:59:08;3.30;99.90
19232;DHT22;9750;48.730;10.294;2024-03-07T06:01:36;3.30;99.90
19232;DHT22;9750;48.730;10.294;2024-03-07T06:04:05;3.30;99.90
19232;DHT22;9750;48.730;10.294;2024-03-07T06:06:33;3.30;99.90
19232;DHT22;9750;48.730;10.294;2024-03-07T06:09:01;3.40;99.90
19232;DHT22;9750;48.730;10.294;2024-03-07T06:11:33;3.40;99.90
19232;DHT22;9750;48.730;10.294;2024-03-07T06:14:01;3.40;99.90
19232;DHT22;9750;48.730;10.294;2024-03-07T06:16:32;3.40;99.90
19232;DHT22;9750;48.730;10.294;2024-03-07T06:19:00;3.40;99.90
19232;DHT22;9750;48.730;10.294;2024-03-07T06:21:30;3.50;99.90
19232;DHT22;9750;48.730;10.294;2024-03-07T06:23:57;3.50;99.90
19232;DHT22;9750;48.730;10.294;2024-03-07T06:26:33;3.50;99.90
19232;DHT22;9750;48.730;10.294;2024-03-07T06:29:15;3.50;99.90
19232;DHT22;9750;48.730;10.294;2024-03-07T06:31:47;3.60;99.90
19232;DHT22;9750;48.730;10.294;2024-03-07T06:34:19;3.60;99.90
19232;DHT22;9750;48.730;10.294;2024-03-07T06:36:46;3.60;99.90
19232;DHT22;9750;48.730;10.294;2024-03-07T06:39:14;3.60;99.90
19232;DHT22;9750;48.730;10.294;2024-03-07T06:41:41;3.60;99.90
19232;DHT22;9750;48.730;10.294;2024-03-07T06:44:09;3.70;99.90
19232;DHT22;9750;48.730;10.294;2024-03-07T06:46:36;3.70;99.90
19232;DHT22;9750;48.730;10.294;2024-03-07T06:49:05;3.80;99.90
19232;DHT22;9750;48.730;10.294;2024-03-07T06:51:36;3.80;99.90
19232;DHT22;9750;48.730;10.294;2024-03-07T06:54:04;3.80;99.90
19232;DHT22;9750;48.730;10.294;2024-03-07T06:56:31;3.80;99.90
19232;DHT22;9750;48.730;10.294;2024-03-07T06:58:59;3.80;99.90
19232;DHT22;9750;48.730;10.294;2024-03-07T07:01:30;3.90;99.90
19232;DHT22;9750;48.730;10.294;2024-03-07T07:03:59;3.80;99.90
19232;DHT22;9750;48.730;10.294;2024-03-07T07:06:30;3.80;99.90
19232;DHT22;9750;48.730;10.294;2024-03-07T07:08:57;3.90;99.90
19232;DHT22;9750;48.730;10.294;2024-03-07T07:11:28;3.90;99.90
19232;DHT22;9750;48.730;10.294;2024-03-07T07:13:56;4.00;99.90
19232;DHT22;9750;48.730;10.294;2024-03-07T07:16:23;4.00;99.90
19232;DHT22;9750;48.730;10.294;2024-03-07T07:18:50;4.10;99.90
19232;DHT22;9750;48.730;10.294;2024-03-07T07:21:18;4.10;99.90
19232;DHT22;9750;48.730;10.294;2024-03-07T07:23:48;4.20;99.90
19232;DHT22;9750;48.730;10.294;2024-03-07T07:26:24;4.20;99.90
19232;DHT22;9750;48.730;10.294;2024-03-07T07:28:52;4.20;99.90
19232;DHT22;9750;48.730;10.294;2024-03-07T07:31:19;4.30;99.90
19232;DHT22;9750;48.730;10.294;2024-03-07T07:33:47;4.30;99.90
19232;DHT22;9750;48.730;10.294;2024-03-07T07:36:15;4.40;99.90
19232;DHT22;9750;48.730;10.294;2024-03-07T07:38:42;4.40;99.90
19232;DHT22;9750;48.730;10.294;2024-03-07T07:41:11;4.40;99.90
19232;DHT22;9750;48.730;10.294;2024-03-07T07:43:39;4.50;99.90
19232;DHT22;9750;48.730;10.294;2024-03-07T07:46:07;4.50;99.90
19232;DHT22;9750;48.730;10.294;2024-03-07T07:48:34;4.50;99.90
19232;DHT22;9750;48.730;10.294;2024-03-07T07:51:01;4.60;99.90
19232;DHT22;9750;48.730;10.294;2024-03-07T07:53:31;4.50;99.90
19232;DHT22;9750;48.730;10.294;2024-03-07T07:55:58;4.50;99.90
19232;DHT22;9750;48.730;10.294;2024-03-07T07:58:27;4.50;99.90
19232;DHT22;9750;48.730;10.294;2024-03-07T08:00:54;4.50;99.90
19232;DHT22;9750;48.730;10.294;2024-03-07T08:03:22;4.60;99.90
19232;DHT22;9750;48.730;10.294;2024-03-07T08:05:49;4.60;99.90
19232;DHT22;9750;48.730;10.294;2024-03-07T08:08:17;4.60;99.90
19232;DHT22;9750;48.730;10.294;2024-03-07T08:10:44;4.60;99.90
19232;DHT22;9750;48.730;10.294;2024-03-07T08:13:13;4.60;99.90
19232;DHT22;9750;48.730;10.294;2024-03-07T08:15:42;4.70;99.90
19232;DHT22;9750;48.730;10.294;2024-03-07T08:18:09;4.80;99.90
19232;DHT22;9750;48.730;10.294;2024-03-07T08:20:37;4.80;99.90
19232;DHT22;9750;48.730;10.294;2024-03-07T08:23:04;4.90;99.90
19232;DHT22;9750;48.730;10.294;2024-03-07T08:25:32;5.00;99.90
19232;DHT22;9750;48.730;10.294;2024-03-07T08:28:00;5.10;99.90
19232;DHT22;9750;48.730;10.294;2024-03-07T08:30:28;5.00;99.90
19232;DHT22;9750;48.730;10.294;2024-03-07T08:32:58;4.90;99.90
19232;DHT22;9750;48.730;10.294;2024-03-07T08:35:28;4.90;99.90
19232;DHT22;9750;48.730;10.294;2024-03-07T08:37:55;4.90;99.90
19232;DHT22;9750;48.730;10.294;2024-03-07T08:40:23;5.00;99.90
19232;DHT22;9750;48.730;10.294;2024-03-07T08:42:52;5.10;99.90
19232;DHT22;9750;48.730;10.294;2024-03-07T08:45:20;5.30;99.90
19232;DHT22;9750;48.730;10.294;2024-03-07T08:47:49;5.40;99.90
19232;DHT22;9750;48.730;10.294;2024-03-07T08:50:18;5.50;99.90
19232;DHT22;9750;48.730;10.294;2024-03-07T08:52:47;5.70;99.90
19232;DHT22;9750;48.730;10.294;2024-03-07T08:55:15;5.70;99.90
19232;DHT22;9750;48.730;10.294;2024-03-07T08:57:43;5.90;99.90
19232;DHT22;9750;48.730;10.294;2024-03-07T09:00:13;5.80;99.90
19232;DHT22;9750;48.730;10.294;2024-03-07T09:02:48;5.80;99.90
19232;DHT22;9750;48.730;10.294;2024-03-07T09:05:19;5.70;99.90
19232;DHT22;9750;48.730;10.294;2024-03-07T09:07:54;5.70;99.90
19232;DHT22;9750;48.730;10.294;2024-03-07T09:10:21;5.70;99.90
19232;DHT22;9750;48.730;10.294;2024-03-07T09:12:51;5.70;99.90
19232;DHT22;9750;48.730;10.294;2024-03-07T09:15:19;5.60;99.90
19232;DHT22;9750;48.730;10.294;2024-03-07T09:17:48;5.70;99.90
19232;DHT22;9750;48.730;10.294;2024-03-07T09:20:15;5.80;99.90
19232;DHT22;9750;48.730;10.294;2024-03-07T09:22:50;5.80;99.90
19232;DHT22;9750;48.730;10.294;2024-03-07T09:25:20;5.90;99.90
19232;DHT22;9750;48.730;10.294;2024-03-07T09:27:47;5.90;99.90
19232;DHT22;9750;48.730;10.294;2024-03-07T09:30:15;5.90;99.90
19232;DHT22;9750;48.730;10.294;2024-03-07T09:32:45;5.90;99.90
19232;DHT22;9750;48.730;10.294;2024-03-07T09:35:12;6.00;99.90
19232;DHT22;9750;48.730;10.294;2024-03-07T09:37:40;6.20;99.90
19232;DHT22;9750;48.730;10.294;2024-03-07T09:40:10;6.30;99.90
19232;DHT22;9750;48.730;10.294;2024-03-07T09:42:43;6.40;99.90
19232;DHT22;9750;48.730;10.294;2024-03-07T09:45:14;6.60;99.90
19232;DHT22;9750;48.730;10.294;2024-03-07T09:47:45;6.80;99.90
19232;DHT22;9750;48.730;10.294;2024-03-07T09:50:15;6.90;99.90
19232;DHT22;9750;48.730;10.294;2024-03-07T09:52:46;7.00;99.90
19232;DHT22;9750;48.730;10.294;2024-03-07T09:55:17;7.00;99.90
19232;DHT22;9750;48.730;10.294;2024-03-07T09:57:46;7.00;99.90
19232;DHT22;9750;48.730;10.294;2024-03-07T10:00:17;7.10;99.90
19232;DHT22;9750;48.730;10.294;2024-03-07T10:02:53;7.10;99.90
19232;DHT22;9750;48.730;10.294;2024-03-07T10:05:22;7.10;99.90
19232;DHT22;9750;48.730;10.294;2024-03-07T10:07:53;7.10;99.90
19232;DHT22;9750;48.730;10.294;2024-03-07T10:10:22;7.20;99.90
19232;DHT22;9750;48.730;10.294;2024-03-07T10:12:49;7.20;99.90
19232;DHT22;9750;48.730;10.294;2024-03-07T10:15:18;7.30;99.90
19232;DHT22;9750;48.730;10.294;2024-03-07T10:17:45;7.30;99.90
19232;DHT22;9750;48.730;10.294;2024-03-07T10:20:14;7.40;99.90
19232;DHT22;9750;48.730;10.294;2024-03-07T10:22:41;7.50;99.90
19232;DHT22;9750;48.730;10.294;2024-03-07T10:25:08;7.60;99.90
19232;DHT22;9750;48.730;10.294;2024-03-07T10:27:40;7.50;99.90
19232;DHT22;9750;48.730;10.294;2024-03-07T10:30:08;7.50;99.90
19232;DHT22;9750;48.730;10.294;2024-03-07T10:32:41;7.40;99.90
19232;DHT22;9750;48.730;10.294;2024-03-07T10:35:09;7.30;99.90
19232;DHT22;9750;48.730;10.294;2024-03-07T10:37:36;7.40;99.90
19232;DHT22;9750;48.730;10.294;2024-03-07T10:40:04;7.50;99.90
19232;DHT22;9750;48.730;10.294;2024-03-07T10:42:45;7.60;99.90
19232;DHT22;9750;48.730;10.294;2024-03-07T10:45:21;7.70;99.90
19232;DHT22;9750;48.730;10.294;2024-03-07T10:47:53;7.80;99.90
19232;DHT22;9750;48.730;10.294;2024-03-07T10:50:30;7.80;99.90
19232;DHT22;9750;48.730;10.294;2024-03-07T10:52:59;7.80;99.90
19232;DHT22;9750;48.730;10.294;2024-03-07T10:55:34;7.80;99.90
19232;DHT22;9750;48.730;10.294;2024-03-07T10:58:12;7.80;99.90
19232;DHT22;9750;48.730;10.294;2024-03-07T11:00:42;7.80;99.90
19232;DHT22;9750;48.730;10.294;2024-03-07T11:03:11;7.80;99.90
19232;DHT22;9750;48.730;10.294;2024-03-07T11:05:39;7.90;99.90
19232;DHT22;9750;48.730;10.294;2024-03-07T11:08:10;8.00;99.90
19232;DHT22;9750;48.730;10.294;2024-03-07T11:10:39;8.00;99.90
19232;DHT22;9750;48.730;10.294;2024-03-07T11:13:09;8.10;99.90
19232;DHT22;9750;48.730;10.294;2024-03-07T11:15:42;8.10;99.90
19232;DHT22;9750;48.730;10.294;2024-03-07T11:18:09;8.10;99.90
19232;DHT22;9750;48.730;10.294;2024-03-07T11:20:39;8.10;99.90
19232;DHT22;9750;48.730;10.294;2024-03-07T11:23:25;8.20;99.90
19232;DHT22;9750;48.730;10.294;2024-03-07T11:25:55;8.20;99.90
19232;DHT22;9750;48.730;10.294;2024-03-07T11:28:30;8.20;99.90
19232;DHT22;9750;48.730;10.294;2024-03-07T11:31:08;8.30;99.90
19232;DHT22;9750;48.730;10.294;2024-03-07T11:33:37;8.30;99.90
19232;DHT22;9750;48.730;10.294;2024-03-07T11:36:08;8.20;99.90
19232;DHT22;9750;48.730;10.294;2024-03-07T11:38:37;8.20;99.90
19232;DHT22;9750;48.730;10.294;2024-03-07T11:41:05;8.20;99.90
19232;DHT22;9750;48.730;10.294;2024-03-07T11:43:40;8.30;99.90
19232;DHT22;9750;48.730;10.294;2024-03-07T11:46:09;8.30;99.90
19232;DHT22;9750;48.730;10.294;2024-03-07T11:48:42;8.40;99.90
19232;DHT22;9750;48.730;10.294;2024-03-07T11:51:12;8.40;99.90
19232;DHT22;9750;48.730;10.294;2024-03-07T11:53:41;8.40;99.90
19232;DHT22;9750;48.730;10.294;2024-03-07T11:56:08;8.50;99.90
19232;DHT22;9750;48.730;10.294;2024-03-07T11:58:44;8.50;99.90
19232;DHT22;9750;48.730;10.294;2024-03-07T12:01:18;8.60;99.90
19232;DHT22;9750;48.730;10.294;2024-03-07T12:03:49;8.60;99.90
19232;DHT22;9750;48.730;10.294;2024-03-07T12:06:18;8.60;99.90
19232;DHT22;9750;48.730;10.294;2024-03-07T12:08:46;8.50;99.90
19232;DHT22;9750;48.730;10.294;2024-03-07T12:11:14;8.40;99.90
19232;DHT22;9750;48.730;10.294;2024-03-07T12:13:43;8.40;99.90
19232;DHT22;9750;48.730;10.294;2024-03-07T12:16:11;8.40;99.90
19232;DHT22;9750;48.730;10.294;2024-03-07T12:18:38;8.40;99.90
19232;DHT22;9750;48.730;10.294;2024-03-07T12:21:09;8.30;99.90
19232;DHT22;9750;48.730;10.294;2024-03-07T12:23:38;8.30;99.90
19232;DHT22;9750;48.730;10.294;2024-03-07T12:26:06;8.30;99.90
19232;DHT22;9750;48.730;10.294;2024-03-07T12:28:33;8.20;99.90
19232;DHT22;9750;48.730;10.294;2024-03-07T12:31:33;8.20;99.90
19232;DHT22;9750;48.730;10.294;2024-03-07T12:34:19;8.20;99.90
19232;DHT22;9750;48.730;10.294;2024-03-07T12:37:01;8.20;99.90
19232;DHT22;9750;48.730;10.294;2024-03-07T12:39:42;8.30;99.90
19232;DHT22;9750;48.730;10.294;2024-03-07T12:42:15;8.40;99.90
19232;DHT22;9750;48.730;10.294;2024-03-07T12:47:48;8.60;99.90
19232;DHT22;9750;48.730;10.294;2024-03-07T12:50:18;8.50;99.90
19232;DHT22;9750;48.730;10.294;2024-03-07T12:52:46;8.50;99.90
19232;DHT22;9750;48.730;10.294;2024-03-07T12:55:18;8.50;99.90
19232;DHT22;9750;48.730;10.294;2024-03-07T12:57:47;8.40;99.90
19232;DHT22;9750;48.730;10.294;2024-03-07T13:00:16;8.50;99.90
19232;DHT22;9750;48.730;10.294;2024-03-07T13:02:50;8.50;99.90
19232;DHT22;9750;48.730;10.294;2024-03-07T13:05:17;8.60;99.90
19232;DHT22;9750;48.730;10.294;2024-03-07T13:07:48;8.70;99.90
19232;DHT22;9750;48.730;10.294;2024-03-07T13:10:16;8.80;99.90
19232;DHT22;9750;48.730;10.294;2024-03-07T13:12:46;9.00;99.90
19232;DHT22;9750;48.730;10.294;2024-03-07T13:15:15;9.10;99.90
19232;DHT22;9750;48.730;10.294;2024-03-07T13:17:42;9.10;99.90
19232;DHT22;9750;48.730;10.294;2024-03-07T13:20:12;9.10;99.90
19232;DHT22;9750;48.730;10.294;2024-03-07T13:22:41;9.20;99.90
19232;DHT22;9750;48.730;10.294;2024-03-07T13:25:12;9.20;99.90
19232;DHT22;9750;48.730;10.294;2024-03-07T13:27:50;9.20;99.90
19232;DHT22;9750;48.730;10.294;2024-03-07T13:30:21;9.10;99.90
19232;DHT22;9750;48.730;10.294;2024-03-07T13:32:53;9.00;99.90
19232;DHT22;9750;48.730;10.294;2024-03-07T13:35:22;8.90;99.90
19232;DHT22;9750;48.730;10.294;2024-03-07T13:37:51;8.80;99.90
19232;DHT22;9750;48.730;10.294;2024-03-07T13:40:21;8.80;99.90
19232;DHT22;9750;48.730;10.294;2024-03-07T13:42:52;8.80;99.90
19232;DHT22;9750;48.730;10.294;2024-03-07T13:45:21;8.70;99.90
19232;DHT22;9750;48.730;10.294;2024-03-07T13:47:49;8.80;99.90
19232;DHT22;9750;48.730;10.294;2024-03-07T13:50:23;8.80;99.90
19232;DHT22;9750;48.730;10.294;2024-03-07T13:52:51;8.90;99.90
19232;DHT22;9750;48.730;10.294;2024-03-07T13:55:50;9.00;99.90
19232;DHT22;9750;48.730;10.294;2024-03-07T13:58:36;9.00;99.90
19232;DHT22;9750;48.730;10.294;2024-03-07T14:01:22;9.00;99.90
19232;DHT22;9750;48.730;10.294;2024-03-07T14:07:40;8.80;99.90
19232;DHT22;9750;48.730;10.294;2024-03-07T14:10:52;8.80;99.90
19232;DHT22;9750;48.730;10.294;2024-03-07T14:13:39;8.70;99.90
19232;DHT22;9750;48.730;10.294;2024-03-07T14:19:43;8.80;99.90
19232;DHT22;9750;48.730;10.294;2024-03-07T14:22:34;8.70;99.90
19232;DHT22;9750;48.730;10.294;2024-03-07T14:25:46;8.60;99.90
19232;DHT22;9750;48.730;10.294;2024-03-07T14:31:01;8.60;99.90
19232;DHT22;9750;48.730;10.294;2024-03-07T14:33:48;8.60;99.90
19232;DHT22;9750;48.730;10.294;2024-03-07T14:36:16;8.70;99.90
19232;DHT22;9750;48.730;10.294;2024-03-07T14:38:48;8.70;99.90
19232;DHT22;9750;48.730;10.294;2024-03-07T14:41:17;8.80;99.90
19232;DHT22;9750;48.730;10.294;2024-03-07T14:43:48;8.80;99.90
19232;DHT22;9750;48.730;10.294;2024-03-07T14:46:33;8.80;99.90
19232;DHT22;9750;48.730;10.294;2024-03-07T14:49:06;8.70;99.90
19232;DHT22;9750;48.730;10.294;2024-03-07T14:52:07;8.70;99.90
19232;DHT22;9750;48.730;10.294;2024-03-07T14:54:38;8.70;99.90
19232;DHT22;9750;48.730;10.294;2024-03-07T14:57:38;8.70;99.90
19232;DHT22;9750;48.730;10.294;2024-03-07T15:00:25;8.70;99.90
19232;DHT22;9750;48.730;10.294;2024-03-07T15:03:16;8.70;99.90
19232;DHT22;9750;48.730;10.294;2024-03-07T15:06:29;8.60;99.90
19232;DHT22;9750;48.730;10.294;2024-03-07T15:09:13;8.50;99.90
19232;DHT22;9750;48.730;10.294;2024-03-07T15:11:42;8.50;99.90
19232;DHT22;9750;48.730;10.294;2024-03-07T15:14:10;8.50;99.90
19232;DHT22;9750;48.730;10.294;2024-03-07T15:16:39;8.40;99.90
19232;DHT22;9750;48.730;10.294;2024-03-07T15:19:08;8.40;99.90
19232;DHT22;9750;48.730;10.294;2024-03-07T15:21:36;8.40;99.90
19232;DHT22;9750;48.730;10.294;2024-03-07T15:24:04;8.40;99.90
19232;DHT22;9750;48.730;10.294;2024-03-07T15:26:32;8.30;99.90
19232;DHT22;9750;48.730;10.294;2024-03-07T15:29:02;8.30;99.90
19232;DHT22;9750;48.730;10.294;2024-03-07T15:31:30;8.30;99.90
19232;DHT22;9750;48.730;10.294;2024-03-07T15:33:58;8.20;99.90
19232;DHT22;9750;48.730;10.294;2024-03-07T15:36:25;8.20;99.90
19232;DHT22;9750;48.730;10.294;2024-03-07T15:38:54;8.20;99.90
19232;DHT22;9750;48.730;10.294;2024-03-07T15:41:23;8.10;99.90
19232;DHT22;9750;48.730;10.294;2024-03-07T15:43:50;8.10;99.90
19232;DHT22;9750;48.730;10.294;2024-03-07T15:46:19;8.00;99.90
19232;DHT22;9750;48.730;10.294;2024-03-07T15:48:52;8.00;99.90
19232;DHT22;9750;48.730;10.294;2024-03-07T15:51:21;7.90;99.90
19232;DHT22;9750;48.730;10.294;2024-03-07T15:53:48;7.90;99.90
19232;DHT22;9750;48.730;10.294;2024-03-07T15:56:15;7.80;99.90
19232;DHT22;9750;48.730;10.294;2024-03-07T15:58:43;7.70;99.90
19232;DHT22;9750;48.730;10.294;2024-03-07T16:01:11;7.70;99.90
19232;DHT22;9750;48.730;10.294;2024-03-07T16:03:42;7.80;99.90
19232;DHT22;9750;48.730;10.294;2024-03-07T16:06:44;7.80;99.90
19232;DHT22;9750;48.730;10.294;2024-03-07T16:09:11;7.80;99.90
19232;DHT22;9750;48.730;10.294;2024-03-07T16:11:39;7.70;99.90
19232;DHT22;9750;48.730;10.294;2024-03-07T16:14:06;7.70;99.90
19232;DHT22;9750;48.730;10.294;2024-03-07T16:16:39;7.70;99.90
19232;DHT22;9750;48.730;10.294;2024-03-07T16:19:08;7.70;99.90
19232;DHT22;9750;48.730;10.294;2024-03-07T16:21:36;7.60;99.90
19232;DHT22;9750;48.730;10.294;2024-03-07T16:24:05;7.60;99.90